Bogata, Texas
Current Conditions -  °F | °C
As of 10:15 AM on Wednesday 28 Jan 2015 (Local Time) from KPRX Reporting Station
Clear Clear  
Wind Chill: 63°   Ceiling: Unl
Heat Index: 63°   Visibility: 10mi
Dew Point: 45°   Wind: 9mph
Humidity: 52%   Direction: 160°SSE
Pressure: 30.16"   Gusts: NA
Location:  33.47°N, 95.21°W
Report Text: KPRX 281615Z 16008KT 10SM CLR 17/07 A3016 RMK AO1
Loading
Personal Weather Stations






























Interactive Weather Map New forecast layout! Learn more

10-Day Weather Forecast

Advertisements
Track Severe Weather on mobile